createdAt,value
2022-12-19T00:01:59.298Z,-1.50
2022-12-19T00:04:28.857Z,-1.48
2022-12-19T00:06:59.706Z,-1.52
2022-12-19T00:09:28.424Z,-1.54
2022-12-19T00:11:56.614Z,-1.46
2022-12-19T00:14:24.845Z,-1.43
2022-12-19T00:16:52.997Z,-1.42
2022-12-19T00:19:21.715Z,-1.51
2022-12-19T00:21:51.173Z,-1.45
2022-12-19T00:24:21.372Z,-1.43
2022-12-19T00:26:50.207Z,-1.46
2022-12-19T00:29:18.387Z,-1.45
2022-12-19T00:31:46.911Z,-1.52
2022-12-19T00:34:16.438Z,-1.50
2022-12-19T00:36:44.902Z,-1.49
2022-12-19T00:39:32.498Z,-1.57
2022-12-19T00:42:00.672Z,-1.46
2022-12-19T00:44:28.827Z,-1.45
2022-12-19T00:46:56.893Z,-1.47
2022-12-19T00:49:25.858Z,-1.40
2022-12-19T00:51:54.680Z,-1.48
2022-12-19T00:54:22.905Z,-1.37
2022-12-19T00:56:53.729Z,-1.36
2022-12-19T00:59:26.688Z,-1.38
2022-12-19T01:01:57.892Z,-1.45
2022-12-19T01:04:28.509Z,-1.35
2022-12-19T01:06:58.018Z,-1.40
2022-12-19T01:09:33.451Z,-1.31
2022-12-19T01:12:20.489Z,-1.49
2022-12-19T01:14:54.658Z,-1.48
2022-12-19T01:17:26.680Z,-1.38
2022-12-19T01:19:54.852Z,-1.37
2022-12-19T01:22:23.054Z,-1.35
2022-12-19T01:24:51.169Z,-1.30
2022-12-19T01:27:20.735Z,-1.36
2022-12-19T01:29:52.669Z,-1.31
2022-12-19T01:32:21.719Z,-1.39
2022-12-19T01:34:49.859Z,-1.45
2022-12-19T01:37:18.067Z,-1.33
2022-12-19T01:39:46.302Z,-1.37
2022-12-19T01:42:17.693Z,-1.45
2022-12-19T01:45:21.234Z,-1.61
2022-12-19T01:47:53.459Z,-1.64
2022-12-19T01:50:28.268Z,-1.69
2022-12-19T01:52:58.309Z,-1.74
2022-12-19T01:55:26.908Z,-1.83
2022-12-19T01:57:56.133Z,-1.79
2022-12-19T02:00:25.705Z,-1.67
2022-12-19T02:02:58.988Z,-1.73
2022-12-19T02:05:27.708Z,-1.60
2022-12-19T02:07:55.977Z,-1.54
2022-12-19T02:10:24.270Z,-1.48
2022-12-19T02:12:52.705Z,-1.54
2022-12-19T02:15:22.069Z,-1.55
2022-12-19T02:18:04.310Z,-1.58
2022-12-19T02:21:08.417Z,-1.53
2022-12-19T02:24:12.386Z,-1.56
2022-12-19T02:26:53.045Z,-1.51
2022-12-19T02:29:50.954Z,-1.58
2022-12-19T02:32:28.521Z,-1.53
2022-12-19T02:35:02.780Z,-1.53
2022-12-19T02:37:35.502Z,-1.48
2022-12-19T02:40:14.136Z,-1.63
2022-12-19T02:42:47.945Z,-1.50
2022-12-19T02:45:27.097Z,-1.48
2022-12-19T02:48:03.270Z,-1.67
2022-12-19T02:50:39.109Z,-1.54
2022-12-19T02:53:07.800Z,-1.49
2022-12-19T02:55:43.595Z,-1.55
2022-12-19T02:58:34.525Z,-1.57
2022-12-19T03:01:11.954Z,-1.55
2022-12-19T03:03:53.560Z,-1.59
2022-12-19T03:06:27.493Z,-1.59
2022-12-19T03:09:01.789Z,-1.61
2022-12-19T03:11:35.423Z,-1.56
2022-12-19T03:14:07.512Z,-1.61
2022-12-19T03:16:36.770Z,-1.63
2022-12-19T03:19:11.388Z,-1.55
2022-12-19T03:21:42.672Z,-1.71
2022-12-19T03:24:12.883Z,-1.71
2022-12-19T03:26:46.189Z,-1.80
2022-12-19T03:29:20.225Z,-1.86
2022-12-19T03:31:48.760Z,-1.83
2022-12-19T03:34:21.567Z,-2.01
2022-12-19T03:36:55.118Z,-1.93
2022-12-19T03:39:24.872Z,-1.99
2022-12-19T03:42:11.179Z,-1.98
2022-12-19T03:44:42.883Z,-1.99
2022-12-19T03:47:17.231Z,-1.90
2022-12-19T03:49:47.613Z,-1.87
2022-12-19T03:52:27.128Z,-1.88
2022-12-19T03:55:04.466Z,-1.80
2022-12-19T03:57:41.064Z,-1.81
2022-12-19T04:00:12.905Z,-1.73
2022-12-19T04:02:44.836Z,-1.85
2022-12-19T04:05:19.433Z,-1.84
2022-12-19T04:07:49.126Z,-1.82
2022-12-19T04:10:20.177Z,-1.80
2022-12-19T04:12:53.919Z,-1.78
2022-12-19T04:15:27.847Z,-1.86
2022-12-19T04:17:59.857Z,-1.77
2022-12-19T04:20:31.481Z,-1.72
2022-12-19T04:23:05.581Z,-1.72
2022-12-19T04:25:38.714Z,-1.71
2022-12-19T04:28:14.179Z,-1.87
2022-12-19T04:30:45.069Z,-1.78
2022-12-19T04:33:13.448Z,-1.72
2022-12-19T04:35:43.152Z,-1.82
2022-12-19T04:38:11.340Z,-1.82
2022-12-19T04:40:41.525Z,-1.68
2022-12-19T04:43:10.562Z,-1.76
2022-12-19T04:45:38.799Z,-1.72
2022-12-19T04:48:08.091Z,-1.73
2022-12-19T04:50:37.508Z,-1.73
2022-12-19T04:53:07.663Z,-1.69
2022-12-19T04:55:35.870Z,-1.74
2022-12-19T04:58:06.160Z,-1.67
2022-12-19T05:00:35.334Z,-1.65
2022-12-19T05:03:03.614Z,-1.61
2022-12-19T05:05:31.825Z,-1.64
2022-12-19T05:08:00.030Z,-1.65
2022-12-19T05:10:29.593Z,-1.67
2022-12-19T05:12:57.796Z,-1.67
2022-12-19T05:15:25.951Z,-1.65
2022-12-19T05:17:54.141Z,-1.65
2022-12-19T05:20:22.235Z,-1.70
2022-12-19T05:22:50.735Z,-1.66
2022-12-19T05:25:18.981Z,-1.70
2022-12-19T05:27:48.618Z,-1.80
2022-12-19T05:30:17.100Z,-1.69
2022-12-19T05:32:45.276Z,-1.81
2022-12-19T05:35:13.368Z,-1.84
2022-12-19T05:37:41.496Z,-1.81
2022-12-19T05:40:10.716Z,-1.64
2022-12-19T05:42:38.862Z,-1.74
2022-12-19T05:45:09.633Z,-1.83
2022-12-19T05:47:38.220Z,-1.76
2022-12-19T05:50:06.983Z,-1.80
2022-12-19T05:52:35.188Z,-1.86
2022-12-19T05:55:03.561Z,-1.75
2022-12-19T05:57:31.847Z,-1.79
2022-12-19T06:00:00.023Z,-1.80
2022-12-19T06:02:33.811Z,-1.78
2022-12-19T06:05:02.075Z,-1.75
2022-12-19T06:07:31.032Z,-1.80
2022-12-19T06:09:59.423Z,-1.80
2022-12-19T06:12:27.612Z,-1.80
2022-12-19T06:14:55.907Z,-1.85
2022-12-19T06:17:24.227Z,-1.80
2022-12-19T06:19:53.866Z,-1.80
2022-12-19T06:22:22.136Z,-1.74
2022-12-19T06:24:50.368Z,-1.85
2022-12-19T06:27:18.706Z,-1.68
2022-12-19T06:29:46.926Z,-1.75
2022-12-19T06:32:15.058Z,-1.85
2022-12-19T06:37:32.728Z,-1.77
2022-12-19T06:40:00.895Z,-1.76
2022-12-19T06:42:27.967Z,-1.78
2022-12-19T06:44:57.029Z,-1.87
2022-12-19T06:47:26.337Z,-1.88
2022-12-19T06:49:54.772Z,-1.95
2022-12-19T06:52:22.886Z,-1.93
2022-12-19T06:54:52.439Z,-1.96
2022-12-19T06:57:20.503Z,-1.77
2022-12-19T06:59:48.579Z,-1.77
2022-12-19T07:02:28.785Z,-1.78
2022-12-19T07:05:01.309Z,-1.72
2022-12-19T07:07:30.178Z,-1.62
2022-12-19T07:09:59.749Z,-1.62
2022-12-19T07:12:27.920Z,-1.61
2022-12-19T07:14:55.988Z,-1.52
2022-12-19T07:17:25.552Z,-1.49
2022-12-19T07:19:55.700Z,-1.60
2022-12-19T07:22:25.000Z,-1.40
2022-12-19T07:24:53.336Z,-1.34
2022-12-19T07:27:23.752Z,-1.33
2022-12-19T07:29:51.872Z,-1.34
2022-12-19T07:32:20.052Z,-1.27
2022-12-19T07:34:48.238Z,-1.23
2022-12-19T07:37:16.401Z,-1.17
2022-12-19T07:39:44.460Z,-1.06
2022-12-19T07:42:12.604Z,-0.93
2022-12-19T07:44:42.077Z,-0.88
2022-12-19T07:47:10.136Z,-0.77
2022-12-19T07:49:38.188Z,-0.64
2022-12-19T07:52:06.229Z,-0.52
2022-12-19T07:54:35.164Z,-0.35
2022-12-19T07:57:03.457Z,-0.39
2022-12-19T07:59:37.311Z,-0.14
2022-12-19T08:02:08.629Z,-0.28
2022-12-19T08:04:36.961Z,-0.20
2022-12-19T08:07:05.179Z,-0.33
2022-12-19T08:09:33.407Z,-0.23
2022-12-19T08:12:01.473Z,-0.27
2022-12-19T08:14:29.601Z,-0.34
2022-12-19T08:19:47.040Z,-0.36
2022-12-19T08:22:15.253Z,-0.55
2022-12-19T08:24:43.392Z,-0.56
2022-12-19T08:27:12.072Z,-0.46
2022-12-19T08:29:40.452Z,-0.45
2022-12-19T08:32:08.517Z,-0.33
2022-12-19T08:34:36.963Z,-0.30
2022-12-19T08:37:06.363Z,-0.18
2022-12-19T08:39:34.394Z,-0.13
2022-12-19T08:42:02.412Z,-0.18
2022-12-19T08:44:30.885Z,-0.10
2022-12-19T08:46:58.942Z,-0.05
2022-12-19T08:49:27.081Z,-0.11
2022-12-19T08:51:55.149Z,-0.10
2022-12-19T08:54:24.757Z,-0.10
2022-12-19T08:56:52.814Z,-0.18
2022-12-19T08:59:30.894Z,-0.25
2022-12-19T09:02:00.738Z,-0.20
2022-12-19T09:06:01.888Z,-0.16
2022-12-19T09:07:17.773Z,-0.14
2022-12-19T09:09:47.273Z,-0.15
2022-12-19T09:12:16.558Z,-0.14
2022-12-19T09:14:45.321Z,-0.09
2022-12-19T09:17:13.660Z,0.02
2022-12-19T09:19:43.064Z,0.01
2022-12-19T09:22:15.734Z,0.04
2022-12-19T09:24:43.967Z,-0.01
2022-12-19T09:27:14.183Z,0.09
2022-12-19T09:29:43.113Z,0.28
2022-12-19T09:32:11.397Z,0.25
2022-12-19T09:34:39.796Z,0.35
2022-12-19T09:37:08.908Z,0.32
2022-12-19T09:39:38.654Z,0.27
2022-12-19T09:42:26.471Z,0.25
2022-12-19T09:45:14.627Z,0.27
2022-12-19T09:47:58.828Z,0.24
2022-12-19T09:50:46.038Z,0.28
2022-12-19T09:53:22.613Z,0.19
2022-12-19T09:55:53.688Z,0.18
2022-12-19T09:58:32.676Z,0.13
2022-12-19T10:01:07.531Z,0.22
2022-12-19T10:03:40.770Z,0.16
2022-12-19T10:07:16.302Z,0.31
2022-12-19T10:10:37.558Z,0.25
2022-12-19T10:12:39.584Z,0.25
2022-12-19T10:15:19.002Z,0.17
2022-12-19T10:18:06.286Z,-0.01
2022-12-19T10:20:38.613Z,-0.19
2022-12-19T10:23:37.003Z,-0.39
2022-12-19T10:26:12.149Z,-0.36
2022-12-19T10:28:57.638Z,-0.47
2022-12-19T10:31:35.159Z,-0.62
2022-12-19T10:34:18.747Z,-0.58
2022-12-19T10:37:25.589Z,-0.50
2022-12-19T10:39:48.426Z,-0.56
2022-12-19T10:42:26.317Z,-0.49
2022-12-19T10:44:55.265Z,-0.47
2022-12-19T10:47:25.361Z,-0.39
2022-12-19T10:49:53.493Z,-0.24
2022-12-19T10:52:47.954Z,-0.25
2022-12-19T10:55:28.544Z,-0.37
2022-12-19T10:57:59.952Z,-0.34
2022-12-19T11:00:29.252Z,-0.34
2022-12-19T11:03:18.934Z,-0.42
2022-12-19T11:05:57.996Z,-0.47
2022-12-19T11:08:28.651Z,-0.56
2022-12-19T11:12:41.372Z,-0.70
2022-12-19T11:17:22.054Z,-0.68
2022-12-19T11:23:49.106Z,-0.88
2022-12-19T11:28:35.629Z,-0.98
2022-12-19T11:29:37.047Z,-0.99
2022-12-19T11:29:38.159Z,-0.93
2022-12-19T11:29:41.739Z,-0.87
2022-12-19T11:34:05.052Z,-0.91
2022-12-19T11:36:39.227Z,-0.82
2022-12-19T11:39:17.268Z,-0.85
2022-12-19T11:41:52.984Z,-0.75
2022-12-19T11:44:29.251Z,-0.73
2022-12-19T11:47:04.891Z,-0.80
2022-12-19T11:49:39.744Z,-0.83
2022-12-19T11:53:02.387Z,-0.87
2022-12-19T11:55:21.404Z,-1.06
2022-12-19T11:57:49.767Z,-1.06
2022-12-19T12:00:21.739Z,-1.04
2022-12-19T12:03:31.203Z,-1.03
2022-12-19T12:05:59.408Z,-1.07
2022-12-19T12:12:10.439Z,-0.97
2022-12-19T12:18:26.335Z,-0.93
2022-12-19T12:24:48.052Z,-1.09
2022-12-19T12:31:00.842Z,-1.05
2022-12-19T12:31:31.738Z,-1.01
2022-12-19T12:32:02.266Z,-1.08
2022-12-19T12:32:06.517Z,-0.96
2022-12-19T12:35:10.959Z,-1.06
2022-12-19T12:35:43.564Z,-0.93
2022-12-19T12:39:04.379Z,-1.07
2022-12-19T12:42:00.501Z,-1.00
2022-12-19T12:44:33.140Z,-1.13
2022-12-19T12:47:08.133Z,-1.13
2022-12-19T12:49:41.400Z,-1.07
2022-12-19T12:52:18.166Z,-1.06
2022-12-19T12:54:50.602Z,-1.00
2022-12-19T12:57:36.136Z,-0.92
2022-12-19T13:00:24.097Z,-0.96
2022-12-19T13:02:56.996Z,-0.93
2022-12-19T13:05:38.142Z,-0.86
2022-12-19T13:08:35.612Z,-0.90
2022-12-19T13:11:07.721Z,-0.98
2022-12-19T13:13:55.390Z,-0.93
2022-12-19T13:16:50.789Z,-0.87
2022-12-19T13:19:27.555Z,-0.91
2022-12-19T13:22:22.009Z,-0.94
2022-12-19T13:24:52.572Z,-1.00
2022-12-19T13:27:37.128Z,-1.00
2022-12-19T13:30:21.066Z,-0.99
2022-12-19T13:33:17.016Z,-0.91
2022-12-19T13:39:14.812Z,-0.87
2022-12-19T13:40:00.347Z,-0.86
2022-12-19T13:41:46.132Z,-0.85
2022-12-19T13:44:19.432Z,-0.97
2022-12-19T13:46:48.275Z,-0.85
2022-12-19T13:49:20.206Z,-0.97
2022-12-19T13:51:50.532Z,-1.07
2022-12-19T13:54:24.614Z,-1.06
2022-12-19T13:56:54.132Z,-1.06
2022-12-19T13:59:27.525Z,-1.01
2022-12-19T14:01:56.434Z,-1.06
2022-12-19T14:04:30.502Z,-1.13
2022-12-19T14:07:02.425Z,-0.99
2022-12-19T14:11:26.468Z,-1.03
2022-12-19T14:13:51.495Z,-1.11
2022-12-19T14:15:36.117Z,-1.08
2022-12-19T14:18:45.400Z,-1.14
2022-12-19T14:22:04.209Z,-1.10
2022-12-19T14:24:16.596Z,-1.15
2022-12-19T14:28:24.526Z,-1.19
2022-12-19T14:30:26.062Z,-1.21
2022-12-19T14:33:45.560Z,-1.22
2022-12-19T14:36:06.249Z,-1.15
2022-12-19T14:39:20.827Z,-1.24
2022-12-19T14:41:07.787Z,-1.26
2022-12-19T14:43:56.433Z,-1.29
2022-12-19T14:51:42.930Z,-1.18
2022-12-19T14:54:07.204Z,-1.11
2022-12-19T14:54:30.493Z,-1.10
2022-12-19T14:56:08.288Z,-1.13
2022-12-19T14:58:55.442Z,-1.17
2022-12-19T15:01:24.620Z,-1.22
2022-12-19T15:04:52.056Z,-1.25
2022-12-19T15:07:06.860Z,-1.23
2022-12-19T15:11:05.009Z,-1.24
2022-12-19T15:14:47.388Z,-1.18
2022-12-19T15:15:46.069Z,-1.23
2022-12-19T15:18:25.016Z,-1.28
2022-12-19T15:20:56.117Z,-1.34
2022-12-19T15:23:26.142Z,-1.34
2022-12-19T15:26:04.484Z,-1.38
2022-12-19T15:28:39.118Z,-1.35
2022-12-19T15:31:17.479Z,-1.43
2022-12-19T15:34:07.201Z,-1.39
2022-12-19T15:36:33.887Z,-1.37
2022-12-19T15:39:03.829Z,-1.33
2022-12-19T15:41:32.750Z,-1.41
2022-12-19T15:44:12.308Z,-1.49
2022-12-19T15:46:48.167Z,-1.42
2022-12-19T15:49:18.614Z,-1.44
2022-12-19T15:51:47.161Z,-1.47
2022-12-19T15:57:05.568Z,-1.52
2022-12-19T15:59:38.142Z,-1.43
2022-12-19T16:02:17.898Z,-1.51
2022-12-19T16:04:47.667Z,-1.49
2022-12-19T16:07:17.853Z,-1.46
2022-12-19T16:09:47.659Z,-1.50
2022-12-19T16:12:18.034Z,-1.43
2022-12-19T16:14:47.469Z,-1.38
2022-12-19T16:17:21.068Z,-1.47
2022-12-19T16:19:50.875Z,-1.53
2022-12-19T16:22:21.484Z,-1.52
2022-12-19T16:24:51.616Z,-1.60
2022-12-19T16:27:24.181Z,-1.54
2022-12-19T16:29:53.226Z,-1.58
2022-12-19T16:32:24.185Z,-1.56
2022-12-19T16:34:54.421Z,-1.46
2022-12-19T16:37:25.855Z,-1.51
2022-12-19T16:39:59.838Z,-1.58
2022-12-19T16:42:28.391Z,-1.62
2022-12-19T16:44:56.854Z,-1.64
2022-12-19T16:47:25.047Z,-1.66
2022-12-19T16:49:53.383Z,-1.68
2022-12-19T16:52:21.430Z,-1.77
2022-12-19T16:54:51.116Z,-1.68
2022-12-19T16:57:23.304Z,-1.60
2022-12-19T16:59:51.905Z,-1.70
2022-12-19T17:02:44.272Z,-1.72
2022-12-19T17:05:18.437Z,-1.62
2022-12-19T17:07:47.196Z,-1.59
2022-12-19T17:10:18.735Z,-1.62
2022-12-19T17:12:51.194Z,-1.60
2022-12-19T17:15:26.704Z,-1.67
2022-12-19T17:17:57.123Z,-1.64
2022-12-19T17:20:28.873Z,-1.74
2022-12-19T17:22:57.112Z,-1.64
2022-12-19T17:25:27.254Z,-1.66
2022-12-19T17:27:58.340Z,-1.69
2022-12-19T17:30:26.510Z,-1.67
2022-12-19T17:32:56.950Z,-1.60
2022-12-19T17:35:29.056Z,-1.58
2022-12-19T17:37:58.487Z,-1.52
2022-12-19T17:40:28.579Z,-1.49
2022-12-19T17:42:59.227Z,-1.50
2022-12-19T17:45:30.148Z,-1.61
2022-12-19T17:48:03.075Z,-1.51
2022-12-19T17:50:35.763Z,-1.66
2022-12-19T17:53:04.009Z,-1.54
2022-12-19T17:55:32.600Z,-1.59
2022-12-19T17:58:02.111Z,-1.56
2022-12-19T18:00:33.563Z,-1.52
2022-12-19T18:03:06.004Z,-1.50
2022-12-19T18:05:37.020Z,-1.43
2022-12-19T18:08:08.102Z,-1.41
2022-12-19T18:10:36.262Z,-1.35
2022-12-19T18:13:06.198Z,-1.34
2022-12-19T18:15:34.537Z,-1.26
2022-12-19T18:18:02.634Z,-1.27
2022-12-19T18:20:33.852Z,-1.44
2022-12-19T18:23:03.324Z,-1.47
2022-12-19T18:25:35.222Z,-1.44
2022-12-19T18:28:03.707Z,-1.39
2022-12-19T18:30:33.892Z,-1.41
2022-12-19T18:33:04.080Z,-1.44
2022-12-19T18:35:35.931Z,-1.39
2022-12-19T18:38:07.223Z,-1.41
2022-12-19T18:40:35.877Z,-1.37
2022-12-19T18:43:04.700Z,-1.38
2022-12-19T18:45:37.526Z,-1.34
2022-12-19T18:48:09.103Z,-1.34
2022-12-19T18:50:37.633Z,-1.32
2022-12-19T18:53:14.469Z,-1.39
2022-12-19T18:55:54.433Z,-1.30
2022-12-19T18:58:41.219Z,-1.19
2022-12-19T19:01:16.936Z,-1.23
2022-12-19T19:03:53.049Z,-1.10
2022-12-19T19:06:23.360Z,-1.11
2022-12-19T19:08:52.213Z,-1.09
2022-12-19T19:11:32.119Z,-1.11
2022-12-19T19:14:00.838Z,-1.17
2022-12-19T19:16:31.206Z,-1.15
2022-12-19T19:19:01.090Z,-1.18
2022-12-19T19:21:33.646Z,-1.24
2022-12-19T19:24:07.141Z,-1.21
2022-12-19T19:26:35.960Z,-1.21
2022-12-19T19:29:05.536Z,-1.18
2022-12-19T19:31:40.033Z,-1.20
2022-12-19T19:34:12.705Z,-1.11
2022-12-19T19:36:45.635Z,-1.11
2022-12-19T19:39:14.991Z,-1.05
2022-12-19T19:41:43.482Z,-1.09
2022-12-19T19:44:12.008Z,-1.13
2022-12-19T19:46:41.961Z,-1.07
2022-12-19T19:49:10.836Z,-1.02
2022-12-19T19:51:39.533Z,-1.02
2022-12-19T19:54:08.491Z,-1.05
2022-12-19T19:56:37.070Z,-1.02
2022-12-19T19:59:05.536Z,-1.06
2022-12-19T20:01:34.616Z,-1.07
2022-12-19T20:04:04.908Z,-1.08
2022-12-19T20:06:33.529Z,-1.10
2022-12-19T20:09:02.495Z,-1.15
2022-12-19T20:11:32.546Z,-1.13
2022-12-19T20:14:01.097Z,-1.07
2022-12-19T20:16:29.466Z,-1.06
2022-12-19T20:18:57.699Z,-1.05
2022-12-19T20:21:28.261Z,-1.13
2022-12-19T20:23:59.351Z,-1.09
2022-12-19T20:26:28.022Z,-1.13
2022-12-19T20:28:56.990Z,-1.05
2022-12-19T20:31:25.537Z,-0.93
2022-12-19T20:33:57.295Z,-0.89
2022-12-19T20:36:32.484Z,-0.95
2022-12-19T20:39:02.034Z,-1.05
2022-12-19T20:41:30.523Z,-1.21
2022-12-19T20:43:59.155Z,-1.11
2022-12-19T20:46:28.082Z,-1.17
2022-12-19T20:48:57.979Z,-1.08
2022-12-19T20:51:27.938Z,-1.13
2022-12-19T20:53:56.430Z,-1.16
2022-12-19T20:56:26.110Z,-1.20
2022-12-19T20:58:54.557Z,-1.10
2022-12-19T21:01:24.762Z,-1.11
2022-12-19T21:03:54.030Z,-1.05
2022-12-19T21:06:25.499Z,-1.03
2022-12-19T21:08:55.593Z,-1.07
2022-12-19T21:11:24.601Z,-1.11
2022-12-19T21:13:52.829Z,-1.15
2022-12-19T21:16:23.811Z,-1.20
2022-12-19T21:18:52.454Z,-1.30
2022-12-19T21:21:23.004Z,-1.21
2022-12-19T21:23:51.760Z,-1.27
2022-12-19T21:26:22.108Z,-1.21
2022-12-19T21:28:50.769Z,-1.24
2022-12-19T21:31:22.002Z,-1.25
2022-12-19T21:33:51.463Z,-1.25
2022-12-19T21:36:22.444Z,-1.25
2022-12-19T21:38:53.426Z,-1.36
2022-12-19T21:41:23.022Z,-1.34
2022-12-19T21:43:53.689Z,-1.38
2022-12-19T21:46:23.958Z,-1.42
2022-12-19T21:48:53.800Z,-1.39
2022-12-19T21:51:23.912Z,-1.42
2022-12-19T21:53:56.049Z,-1.37
2022-12-19T21:56:27.803Z,-1.25
2022-12-19T21:58:57.663Z,-1.24
2022-12-19T22:01:26.753Z,-1.24
2022-12-19T22:03:59.788Z,-1.25
2022-12-19T22:06:30.604Z,-1.24
2022-12-19T22:08:59.202Z,-1.22
2022-12-19T22:11:30.205Z,-1.25
2022-12-19T22:14:00.411Z,-1.28
2022-12-19T22:16:28.980Z,-1.01
2022-12-19T22:18:57.432Z,-1.02
2022-12-19T22:21:26.114Z,-1.01
2022-12-19T22:23:57.140Z,-0.97
2022-12-19T22:26:26.010Z,-1.01
2022-12-19T22:28:56.693Z,-1.08
2022-12-19T22:31:26.286Z,-1.14
2022-12-19T22:33:57.135Z,-1.13
2022-12-19T22:36:28.776Z,-1.14
2022-12-19T22:38:58.397Z,-1.14
2022-12-19T22:41:27.086Z,-1.17
2022-12-19T22:43:57.160Z,-1.29
2022-12-19T22:46:27.490Z,-1.29
2022-12-19T22:48:57.749Z,-1.23
2022-12-19T22:51:27.357Z,-1.13
2022-12-19T22:53:56.092Z,-1.23
2022-12-19T22:56:26.517Z,-1.18
2022-12-19T22:58:57.744Z,-1.12
2022-12-19T23:01:27.666Z,-1.07
2022-12-19T23:03:57.739Z,-1.16
2022-12-19T23:06:27.766Z,-1.09
2022-12-19T23:08:56.446Z,-1.16
2022-12-19T23:11:27.353Z,-1.11
2022-12-19T23:13:55.463Z,-1.07
2022-12-19T23:16:24.998Z,-1.17
2022-12-19T23:18:53.167Z,-1.30
2022-12-19T23:21:25.192Z,-1.31
2022-12-19T23:23:55.538Z,-1.36
2022-12-19T23:26:25.897Z,-1.36
2022-12-19T23:28:56.300Z,-1.35
2022-12-19T23:31:27.337Z,-1.35
2022-12-19T23:33:55.979Z,-1.36
2022-12-19T23:37:00.487Z,-1.40
2022-12-19T23:39:13.115Z,-1.33
2022-12-19T23:41:41.921Z,-1.33
2022-12-19T23:44:10.865Z,-1.33
2022-12-19T23:46:41.211Z,-1.29
2022-12-19T23:49:09.483Z,-1.26
2022-12-19T23:51:37.777Z,-1.30
2022-12-19T23:54:06.043Z,-1.30
2022-12-19T23:56:34.532Z,-1.39
2022-12-19T23:59:03.979Z,-1.51
